createdAt,value
2022-07-29T00:00:09.970Z,81.89
2022-07-29T00:02:55.205Z,82.25
2022-07-29T00:05:42.661Z,82.36
2022-07-29T00:08:27.840Z,82.33
2022-07-29T00:11:13.152Z,82.43
2022-07-29T00:13:58.396Z,82.79
2022-07-29T00:16:43.821Z,82.80
2022-07-29T00:19:29.080Z,83.18
2022-07-29T00:22:14.350Z,83.48
2022-07-29T00:24:59.838Z,83.95
2022-07-29T00:27:46.742Z,83.72
2022-07-29T00:30:31.967Z,84.24
2022-07-29T00:33:17.164Z,84.62
2022-07-29T00:36:02.116Z,84.78
2022-07-29T00:38:51.911Z,84.78
2022-07-29T00:41:36.833Z,85.11
2022-07-29T00:44:22.216Z,85.50
2022-07-29T00:47:08.360Z,85.72
2022-07-29T00:49:53.612Z,85.54
2022-07-29T00:52:42.177Z,85.46
2022-07-29T00:55:27.786Z,85.36
2022-07-29T00:58:14.857Z,85.24
2022-07-29T01:01:01.348Z,85.36
2022-07-29T01:03:46.497Z,85.45
2022-07-29T01:06:31.496Z,85.28
2022-07-29T01:09:18.552Z,85.39
2022-07-29T01:12:25.290Z,85.54
2022-07-29T01:15:10.874Z,85.51
2022-07-29T01:18:08.116Z,85.97
2022-07-29T01:21:14.650Z,85.75
2022-07-29T01:24:28.540Z,86.19
2022-07-29T01:27:34.331Z,86.59
2022-07-29T01:30:19.835Z,87.16
2022-07-29T01:33:32.423Z,87.59
2022-07-29T01:36:24.892Z,87.25
2022-07-29T01:39:17.982Z,87.00
2022-07-29T01:42:08.831Z,87.41
2022-07-29T01:45:17.827Z,88.23
2022-07-29T01:48:22.832Z,88.72
2022-07-29T01:51:07.654Z,89.72
2022-07-29T01:54:15.412Z,90.15
2022-07-29T01:57:02.584Z,91.53
2022-07-29T01:59:49.541Z,92.16
2022-07-29T02:02:37.042Z,92.45
2022-07-29T02:05:25.085Z,92.68
2022-07-29T02:08:12.315Z,92.32
2022-07-29T02:11:00.495Z,92.17
2022-07-29T02:13:46.457Z,92.09
2022-07-29T02:16:34.564Z,91.85
2022-07-29T02:19:24.336Z,91.96
2022-07-29T02:22:12.043Z,92.40
2022-07-29T02:24:59.294Z,92.94
2022-07-29T02:27:48.235Z,93.83
2022-07-29T02:30:36.572Z,93.80
2022-07-29T02:33:24.209Z,93.89
2022-07-29T02:36:10.193Z,94.50
2022-07-29T02:38:58.684Z,94.58
2022-07-29T02:41:51.098Z,94.95
2022-07-29T02:44:36.938Z,94.89
2022-07-29T02:47:24.986Z,94.74
2022-07-29T02:50:33.601Z,94.74
2022-07-29T02:53:27.554Z,94.40
2022-07-29T02:56:17.429Z,94.85
2022-07-29T02:59:04.286Z,94.78
2022-07-29T03:01:50.693Z,94.99
2022-07-29T03:04:38.255Z,95.34
2022-07-29T03:07:24.335Z,95.95
2022-07-29T03:10:13.746Z,96.18
2022-07-29T03:13:00.182Z,96.06
2022-07-29T03:15:46.300Z,96.25
2022-07-29T03:18:32.638Z,96.43
2022-07-29T03:21:18.067Z,96.41
2022-07-29T03:24:06.868Z,96.67
2022-07-29T03:26:57.163Z,96.20
2022-07-29T03:29:43.720Z,96.10
2022-07-29T03:32:36.306Z,95.71
2022-07-29T03:35:21.446Z,95.03
2022-07-29T03:38:06.611Z,95.30
2022-07-29T03:41:01.683Z,95.69
2022-07-29T03:43:49.107Z,96.37
2022-07-29T03:46:36.515Z,95.79
2022-07-29T03:49:24.205Z,95.96
2022-07-29T03:52:09.913Z,95.92
2022-07-29T03:54:55.130Z,96.25
2022-07-29T03:57:41.404Z,96.32
2022-07-29T04:00:27.852Z,96.51
2022-07-29T04:03:14.131Z,96.83
2022-07-29T04:06:07.677Z,96.71
2022-07-29T04:08:52.687Z,96.88
2022-07-29T04:12:01.877Z,96.91
2022-07-29T04:14:45.962Z,96.90
2022-07-29T04:17:31.381Z,97.13
2022-07-29T04:20:16.680Z,97.01
2022-07-29T04:23:02.167Z,97.07
2022-07-29T04:25:47.438Z,96.71
2022-07-29T04:28:32.941Z,96.69
2022-07-29T04:31:22.426Z,96.72
2022-07-29T04:34:11.224Z,97.08
2022-07-29T04:36:56.874Z,97.27
2022-07-29T04:39:41.942Z,97.45
2022-07-29T04:42:27.734Z,97.62
2022-07-29T04:45:15.033Z,98.15
2022-07-29T04:48:01.436Z,98.98
2022-07-29T04:50:46.543Z,99.05
2022-07-29T04:53:31.981Z,99.16
2022-07-29T04:56:17.160Z,99.23
2022-07-29T04:59:02.518Z,99.07
2022-07-29T05:01:47.814Z,98.64
2022-07-29T05:04:32.887Z,98.59
2022-07-29T05:07:17.844Z,98.48
2022-07-29T05:10:04.304Z,98.65
2022-07-29T05:12:49.532Z,99.10
2022-07-29T05:15:35.762Z,99.10
2022-07-29T05:18:20.854Z,99.74
2022-07-29T05:21:11.284Z,99.94
2022-07-29T05:23:56.533Z,100.00
2022-07-29T05:26:41.910Z,100.00
2022-07-29T05:29:43.907Z,100.00
2022-07-29T05:32:30.755Z,100.00
2022-07-29T05:35:16.584Z,100.00
2022-07-29T05:38:01.954Z,100.00
2022-07-29T05:40:47.092Z,100.00
2022-07-29T05:43:32.742Z,100.00
2022-07-29T05:46:17.980Z,100.00
2022-07-29T05:49:03.863Z,100.00
2022-07-29T05:51:50.273Z,100.00
2022-07-29T05:54:35.902Z,100.00
2022-07-29T05:57:24.331Z,100.00
2022-07-29T06:00:10.376Z,100.00
2022-07-29T06:02:55.370Z,100.00
2022-07-29T06:05:40.901Z,100.00
2022-07-29T06:08:26.089Z,100.00
2022-07-29T06:11:11.405Z,100.00
2022-07-29T06:13:56.808Z,100.00
2022-07-29T06:16:42.394Z,100.00
2022-07-29T06:19:27.771Z,100.00
2022-07-29T06:22:12.881Z,100.00
2022-07-29T06:24:58.148Z,99.97
2022-07-29T06:27:43.390Z,99.54
2022-07-29T06:30:29.669Z,99.33
2022-07-29T06:33:19.801Z,98.39
2022-07-29T06:36:06.664Z,97.90
2022-07-29T06:38:52.320Z,97.56
2022-07-29T06:41:39.190Z,96.88
2022-07-29T06:44:24.379Z,96.31
2022-07-29T06:47:09.565Z,95.62
2022-07-29T06:49:54.863Z,95.16
2022-07-29T06:52:40.052Z,94.69
2022-07-29T06:55:25.589Z,94.24
2022-07-29T06:58:11.760Z,93.55
2022-07-29T07:00:57.816Z,92.73
2022-07-29T07:03:43.154Z,92.22
2022-07-29T07:06:28.523Z,91.83
2022-07-29T07:09:13.782Z,91.25
2022-07-29T07:11:59.041Z,90.95
2022-07-29T07:14:44.337Z,89.99
2022-07-29T07:17:29.638Z,89.76
2022-07-29T07:20:14.846Z,89.50
2022-07-29T07:23:00.071Z,83.53
2022-07-29T07:25:45.364Z,79.91
2022-07-29T07:28:30.571Z,79.59
2022-07-29T07:31:15.887Z,80.50
2022-07-29T07:34:01.283Z,81.00
2022-07-29T07:36:46.636Z,81.86
2022-07-29T07:39:31.978Z,81.44
2022-07-29T07:42:17.391Z,80.65
2022-07-29T07:45:13.719Z,80.74
2022-07-29T07:47:59.426Z,80.31
2022-07-29T07:50:44.765Z,80.01
2022-07-29T07:53:30.714Z,79.99
2022-07-29T07:56:16.491Z,79.68
2022-07-29T07:59:01.447Z,78.97
2022-07-29T08:01:50.481Z,78.46
2022-07-29T08:04:41.922Z,77.58
2022-07-29T08:07:27.127Z,76.85
2022-07-29T08:10:13.088Z,76.99
2022-07-29T08:12:58.469Z,77.13
2022-07-29T08:15:45.820Z,75.96
2022-07-29T08:18:32.093Z,74.34
2022-07-29T08:21:18.563Z,73.93
2022-07-29T08:24:22.770Z,73.45
2022-07-29T08:27:26.937Z,72.92
2022-07-29T08:30:13.105Z,71.18
2022-07-29T08:32:58.393Z,70.58
2022-07-29T08:35:43.450Z,69.77
2022-07-29T08:38:28.789Z,68.35
2022-07-29T08:41:14.070Z,66.74
2022-07-29T08:43:59.383Z,65.65
2022-07-29T08:46:44.904Z,65.57
2022-07-29T08:49:30.036Z,66.09
2022-07-29T08:52:16.997Z,66.03
2022-07-29T08:55:02.951Z,65.49
2022-07-29T08:57:51.961Z,64.25
2022-07-29T09:00:46.559Z,63.82
2022-07-29T09:03:36.893Z,62.11
2022-07-29T09:06:23.021Z,61.61
2022-07-29T09:09:09.148Z,61.03
2022-07-29T09:11:54.537Z,60.49
2022-07-29T09:14:40.340Z,59.51
2022-07-29T09:17:56.281Z,58.42
2022-07-29T09:21:11.773Z,58.54
2022-07-29T09:24:10.191Z,57.82
2022-07-29T09:26:55.823Z,56.85
2022-07-29T09:29:41.224Z,55.52
2022-07-29T09:32:27.424Z,54.44
2022-07-29T09:35:21.540Z,54.36
2022-07-29T09:38:15.998Z,53.90
2022-07-29T09:41:06.136Z,53.99
2022-07-29T09:43:59.635Z,53.37
2022-07-29T09:47:07.072Z,53.04
2022-07-29T09:49:54.333Z,52.85
2022-07-29T09:52:50.226Z,52.25
2022-07-29T09:55:50.697Z,52.34
2022-07-29T09:58:37.123Z,52.56
2022-07-29T10:01:29.691Z,52.48
2022-07-29T10:04:15.377Z,53.06
2022-07-29T10:07:05.371Z,52.78
2022-07-29T10:09:55.673Z,52.15
2022-07-29T10:13:07.243Z,51.40
2022-07-29T10:15:55.253Z,51.48
2022-07-29T10:18:41.155Z,51.03
2022-07-29T10:21:36.179Z,51.15
2022-07-29T10:24:22.349Z,50.43
2022-07-29T10:27:09.526Z,50.34
2022-07-29T10:29:55.356Z,48.87
2022-07-29T10:33:07.705Z,48.47
2022-07-29T10:35:55.905Z,48.92
2022-07-29T10:38:53.333Z,49.62
2022-07-29T10:42:08.171Z,48.85
2022-07-29T10:44:55.170Z,48.54
2022-07-29T10:47:40.506Z,48.26
2022-07-29T10:50:25.684Z,47.32
2022-07-29T10:53:11.995Z,47.39
2022-07-29T10:55:59.548Z,46.67
2022-07-29T10:58:49.959Z,46.49
2022-07-29T11:01:39.045Z,45.68
2022-07-29T11:04:47.180Z,45.42
2022-07-29T11:07:45.932Z,45.15
2022-07-29T11:10:31.979Z,44.46
2022-07-29T11:13:47.247Z,43.02
2022-07-29T11:17:03.590Z,43.23
2022-07-29T11:19:52.623Z,42.90
2022-07-29T11:22:43.149Z,43.01
2022-07-29T11:25:42.510Z,42.57
2022-07-29T11:28:40.633Z,42.77
2022-07-29T11:31:42.303Z,42.23
2022-07-29T11:34:36.523Z,42.37
2022-07-29T11:40:28.111Z,41.11
2022-07-29T11:43:52.437Z,40.79
2022-07-29T11:46:51.919Z,40.47
2022-07-29T11:49:48.161Z,40.06
2022-07-29T11:52:38.391Z,40.78
2022-07-29T11:55:37.987Z,41.80
2022-07-29T11:58:38.280Z,41.24
2022-07-29T12:01:25.518Z,41.43
2022-07-29T12:04:13.777Z,40.46
2022-07-29T12:07:00.495Z,39.95
2022-07-29T12:09:53.577Z,39.33
2022-07-29T12:12:42.474Z,39.09
2022-07-29T12:15:39.486Z,39.01
2022-07-29T12:18:32.135Z,38.98
2022-07-29T12:21:17.346Z,38.56
2022-07-29T12:24:08.973Z,38.02
2022-07-29T12:26:59.860Z,37.75
2022-07-29T12:29:55.766Z,38.50
2022-07-29T12:32:46.849Z,37.89
2022-07-29T12:35:32.969Z,38.62
2022-07-29T12:38:18.769Z,38.90
2022-07-29T12:41:04.945Z,38.26
2022-07-29T12:43:54.979Z,36.47
2022-07-29T12:46:40.270Z,36.24
2022-07-29T12:49:25.383Z,36.27
2022-07-29T12:52:34.408Z,36.28
2022-07-29T12:55:42.505Z,35.60
2022-07-29T12:58:31.790Z,35.17
2022-07-29T13:01:19.036Z,35.05
2022-07-29T13:04:05.318Z,35.82
2022-07-29T13:07:10.321Z,35.58
2022-07-29T13:10:20.428Z,35.06
2022-07-29T13:13:14.292Z,35.12
2022-07-29T13:16:09.086Z,34.87
2022-07-29T13:19:11.011Z,34.76
2022-07-29T13:21:56.129Z,35.73
2022-07-29T13:24:59.394Z,36.61
2022-07-29T13:27:46.714Z,36.42
2022-07-29T13:30:32.080Z,36.82
2022-07-29T13:33:17.305Z,37.31
2022-07-29T13:36:02.476Z,36.86
2022-07-29T13:38:47.482Z,36.39
2022-07-29T13:41:32.736Z,36.37
2022-07-29T13:44:18.163Z,36.31
2022-07-29T13:47:03.595Z,35.20
2022-07-29T13:49:49.227Z,35.85
2022-07-29T13:52:34.995Z,35.66
2022-07-29T13:55:20.589Z,35.74
2022-07-29T13:58:05.698Z,35.11
2022-07-29T14:00:51.125Z,34.29
2022-07-29T14:03:39.180Z,34.57
2022-07-29T14:06:25.192Z,34.81
2022-07-29T14:09:10.870Z,33.88
2022-07-29T14:11:56.471Z,33.93
2022-07-29T14:14:42.452Z,33.83
2022-07-29T14:17:28.207Z,34.18
2022-07-29T14:20:13.490Z,33.79
2022-07-29T14:22:58.846Z,33.11
2022-07-29T14:25:44.560Z,33.36
2022-07-29T14:28:30.451Z,33.04
2022-07-29T14:31:16.098Z,31.31
2022-07-29T14:34:03.015Z,31.74
2022-07-29T14:36:48.553Z,31.23
2022-07-29T14:39:36.123Z,30.76
2022-07-29T14:42:24.234Z,30.08
2022-07-29T14:45:10.831Z,30.95
2022-07-29T14:47:56.373Z,30.13
2022-07-29T14:50:42.724Z,30.45
2022-07-29T14:53:28.072Z,29.71
2022-07-29T14:56:35.366Z,30.56
2022-07-29T14:59:18.547Z,30.06
2022-07-29T15:02:04.268Z,29.94
2022-07-29T15:04:49.637Z,31.70
2022-07-29T15:07:35.029Z,31.67
2022-07-29T15:10:20.736Z,31.28
2022-07-29T15:13:06.209Z,31.44
2022-07-29T15:15:51.692Z,31.29
2022-07-29T15:18:39.134Z,32.52
2022-07-29T15:21:24.695Z,32.99
2022-07-29T15:24:10.059Z,33.17
2022-07-29T15:26:55.310Z,33.75
2022-07-29T15:29:42.498Z,33.10
2022-07-29T15:32:27.447Z,33.98
2022-07-29T15:35:12.794Z,32.83
2022-07-29T15:37:58.609Z,31.91
2022-07-29T15:40:44.549Z,32.64
2022-07-29T15:43:29.815Z,32.96
2022-07-29T15:46:34.591Z,34.25
2022-07-29T15:49:19.743Z,34.35
2022-07-29T15:52:10.027Z,34.54
2022-07-29T15:54:58.169Z,35.30
2022-07-29T15:57:43.485Z,34.91
2022-07-29T16:00:28.545Z,35.17
2022-07-29T16:03:14.800Z,35.59
2022-07-29T16:05:59.726Z,35.38
2022-07-29T16:08:45.079Z,35.23
2022-07-29T16:11:30.434Z,35.04
2022-07-29T16:14:15.754Z,35.38
2022-07-29T16:17:03.726Z,36.60
2022-07-29T16:19:48.979Z,39.33
2022-07-29T16:22:34.481Z,41.11
2022-07-29T16:25:19.552Z,42.05
2022-07-29T16:28:05.379Z,42.38
2022-07-29T16:30:51.243Z,43.11
2022-07-29T16:33:54.205Z,43.06
2022-07-29T16:36:44.698Z,43.82
2022-07-29T16:39:32.942Z,44.35
2022-07-29T16:42:36.991Z,43.91
2022-07-29T16:45:23.733Z,44.07
2022-07-29T16:48:08.865Z,44.18
2022-07-29T16:50:56.123Z,44.60
2022-07-29T16:53:41.112Z,44.93
2022-07-29T16:56:26.326Z,44.74
2022-07-29T16:59:11.876Z,45.11
2022-07-29T17:01:56.988Z,45.10
2022-07-29T17:04:42.449Z,45.36
2022-07-29T17:07:27.660Z,45.80
2022-07-29T17:10:13.091Z,46.18
2022-07-29T17:12:58.234Z,46.20
2022-07-29T17:15:44.081Z,46.66
2022-07-29T17:18:29.412Z,46.56
2022-07-29T17:21:14.638Z,46.73
2022-07-29T17:24:00.070Z,46.90
2022-07-29T17:26:45.497Z,47.32
2022-07-29T17:29:30.566Z,47.47
2022-07-29T17:32:15.931Z,47.86
2022-07-29T17:35:01.129Z,48.20
2022-07-29T17:37:46.660Z,48.25
2022-07-29T17:40:31.813Z,48.43
2022-07-29T17:43:17.206Z,48.61
2022-07-29T17:46:02.493Z,48.30
2022-07-29T17:48:48.302Z,48.49
2022-07-29T17:51:33.698Z,48.51
2022-07-29T17:54:18.830Z,48.59
2022-07-29T17:57:04.244Z,48.60
2022-07-29T17:59:49.474Z,49.28
2022-07-29T18:02:37.393Z,49.57
2022-07-29T18:05:23.036Z,49.12
2022-07-29T18:08:08.510Z,49.19
2022-07-29T18:10:53.718Z,49.46
2022-07-29T18:13:39.198Z,49.98
2022-07-29T18:16:24.807Z,49.77
2022-07-29T18:19:10.061Z,49.93
2022-07-29T18:21:57.323Z,50.16
2022-07-29T18:24:44.710Z,49.99
2022-07-29T18:27:29.964Z,50.16
2022-07-29T18:30:15.384Z,50.00
2022-07-29T18:33:20.234Z,50.03
2022-07-29T18:36:11.678Z,50.56
2022-07-29T18:38:56.752Z,50.70
2022-07-29T18:41:50.311Z,50.87
2022-07-29T18:44:43.528Z,50.87
2022-07-29T18:47:32.122Z,50.70
2022-07-29T18:50:19.257Z,50.18
2022-07-29T18:53:04.605Z,50.56
2022-07-29T18:55:49.894Z,50.58
2022-07-29T18:58:36.994Z,50.89
2022-07-29T19:01:22.197Z,50.78
2022-07-29T19:04:07.378Z,50.82
2022-07-29T19:06:52.578Z,51.21
2022-07-29T19:09:37.954Z,51.31
2022-07-29T19:12:34.913Z,51.21
2022-07-29T19:15:20.706Z,50.84
2022-07-29T19:18:05.830Z,51.29
2022-07-29T19:20:51.088Z,51.95
2022-07-29T19:24:06.043Z,52.21
2022-07-29T19:26:46.747Z,52.21
2022-07-29T19:29:32.916Z,51.85
2022-07-29T19:32:25.008Z,51.75
2022-07-29T19:35:28.366Z,51.85
2022-07-29T19:38:14.224Z,51.47
2022-07-29T19:40:59.600Z,51.69
2022-07-29T19:43:52.030Z,51.83
2022-07-29T19:46:38.083Z,52.07
2022-07-29T19:49:23.564Z,52.02
2022-07-29T19:52:08.796Z,51.77
2022-07-29T19:54:53.939Z,51.81
2022-07-29T19:57:41.013Z,51.76
2022-07-29T20:00:27.363Z,51.81
2022-07-29T20:03:13.378Z,52.14
2022-07-29T20:05:59.984Z,52.31
2022-07-29T20:08:45.356Z,52.32
2022-07-29T20:11:30.453Z,52.67
2022-07-29T20:14:15.831Z,52.88
2022-07-29T20:17:01.321Z,53.36
2022-07-29T20:19:46.767Z,53.25
2022-07-29T20:22:32.170Z,53.29
2022-07-29T20:25:17.522Z,53.59
2022-07-29T20:28:02.827Z,53.56
2022-07-29T20:30:48.326Z,53.85
2022-07-29T20:33:34.767Z,53.97
2022-07-29T20:36:20.034Z,53.79
2022-07-29T20:39:05.471Z,54.02
2022-07-29T20:41:50.726Z,54.41
2022-07-29T20:44:36.773Z,55.17
2022-07-29T20:47:22.373Z,55.21
2022-07-29T20:50:09.848Z,55.19
2022-07-29T20:52:54.918Z,55.03
2022-07-29T20:55:40.325Z,55.09
2022-07-29T20:58:26.808Z,55.36
2022-07-29T21:01:12.073Z,55.79
2022-07-29T21:03:57.232Z,55.57
2022-07-29T21:06:42.552Z,55.94
2022-07-29T21:09:28.391Z,56.47
2022-07-29T21:12:14.173Z,57.57
2022-07-29T21:14:59.502Z,57.83
2022-07-29T21:17:47.670Z,58.54
2022-07-29T21:20:32.608Z,59.41
2022-07-29T21:23:17.845Z,59.78
2022-07-29T21:26:03.486Z,60.40
2022-07-29T21:28:50.591Z,60.68
2022-07-29T21:31:36.147Z,61.12
2022-07-29T21:34:21.265Z,61.09
2022-07-29T21:37:06.559Z,61.94
2022-07-29T21:39:53.440Z,61.41
2022-07-29T21:42:38.727Z,61.29
2022-07-29T21:45:24.070Z,61.77
2022-07-29T21:48:09.771Z,60.97
2022-07-29T21:50:55.196Z,60.63
2022-07-29T21:53:40.369Z,61.06
2022-07-29T21:56:27.890Z,61.77
2022-07-29T21:59:13.307Z,61.97
2022-07-29T22:02:00.899Z,62.34
2022-07-29T22:04:46.341Z,62.51
2022-07-29T22:07:54.598Z,63.33
2022-07-29T22:10:37.526Z,63.35
2022-07-29T22:13:22.742Z,63.78
2022-07-29T22:16:10.138Z,64.35
2022-07-29T22:18:55.324Z,64.67
2022-07-29T22:21:41.330Z,63.97
2022-07-29T22:24:26.642Z,64.12
2022-07-29T22:27:12.566Z,64.31
2022-07-29T22:29:57.826Z,64.70
2022-07-29T22:32:43.414Z,64.25
2022-07-29T22:35:28.455Z,64.43
2022-07-29T22:38:14.100Z,64.81
2022-07-29T22:41:01.371Z,64.24
2022-07-29T22:43:46.843Z,64.11
2022-07-29T22:46:33.868Z,64.11
2022-07-29T22:49:19.011Z,64.19
2022-07-29T22:52:04.471Z,64.36
2022-07-29T22:54:50.165Z,64.54
2022-07-29T22:57:35.574Z,65.09
2022-07-29T23:00:20.837Z,65.22
2022-07-29T23:03:06.079Z,65.10
2022-07-29T23:05:51.931Z,65.79
2022-07-29T23:08:36.897Z,66.58
2022-07-29T23:11:22.235Z,66.67
2022-07-29T23:14:07.513Z,67.11
2022-07-29T23:16:55.010Z,68.15
2022-07-29T23:19:40.165Z,69.15
2022-07-29T23:22:25.433Z,70.24
2022-07-29T23:25:10.795Z,70.39
2022-07-29T23:27:56.059Z,70.69
2022-07-29T23:30:42.074Z,71.26
2022-07-29T23:33:27.230Z,71.65
2022-07-29T23:36:12.493Z,71.93
2022-07-29T23:38:57.810Z,72.00
2022-07-29T23:41:43.017Z,72.13
2022-07-29T23:44:28.544Z,72.84
2022-07-29T23:47:13.812Z,73.03
2022-07-29T23:49:59.626Z,73.52
2022-07-29T23:52:45.183Z,73.58
2022-07-29T23:55:37.132Z,73.93
2022-07-29T23:58:24.254Z,74.26
